createdAt,value
2019-03-26T00:00:53.214Z,87.82
2019-03-26T00:01:55.881Z,87.56
2019-03-26T00:03:01.347Z,88.08
2019-03-26T00:04:06.402Z,87.91
2019-03-26T00:05:08.440Z,87.91
2019-03-26T00:06:11.082Z,88.06
2019-03-26T00:07:14.072Z,88.44
2019-03-26T00:08:16.733Z,88.59
2019-03-26T00:09:19.763Z,88.09
2019-03-26T00:10:23.474Z,88.19
2019-03-26T00:11:26.693Z,88.40
2019-03-26T00:12:29.346Z,88.54
2019-03-26T00:13:32.383Z,88.54
2019-03-26T00:14:38.098Z,88.44
2019-03-26T00:15:40.724Z,88.83
2019-03-26T00:16:43.447Z,88.64
2019-03-26T00:17:46.115Z,89.09
2019-03-26T00:18:48.881Z,89.17
2019-03-26T00:19:51.900Z,88.58
2019-03-26T00:20:54.625Z,88.41
2019-03-26T00:21:57.699Z,89.04
2019-03-26T00:23:05.838Z,88.49
2019-03-26T00:24:08.549Z,88.49
2019-03-26T00:25:11.260Z,88.81
2019-03-26T00:26:17.054Z,88.73
2019-03-26T00:27:19.691Z,89.04
2019-03-26T00:28:22.365Z,88.83
2019-03-26T00:29:25.291Z,88.37
2019-03-26T00:30:28.117Z,88.47
2019-03-26T00:31:30.799Z,88.27
2019-03-26T00:32:34.035Z,88.99
2019-03-26T00:33:36.990Z,88.73
2019-03-26T00:34:40.161Z,88.97
2019-03-26T00:35:42.849Z,89.22
2019-03-26T00:36:45.556Z,89.32
2019-03-26T00:37:48.421Z,88.91
2019-03-26T00:38:51.771Z,88.91
2019-03-26T00:39:54.558Z,89.01
2019-03-26T00:40:57.240Z,89.01
2019-03-26T00:42:01.640Z,89.01
2019-03-26T00:43:05.503Z,89.40
2019-03-26T00:44:08.568Z,89.26
2019-03-26T00:45:18.764Z,88.64
2019-03-26T00:46:26.323Z,89.36
2019-03-26T00:47:29.058Z,88.77
2019-03-26T00:48:34.314Z,89.20
2019-03-26T00:49:41.178Z,88.96
2019-03-26T00:50:44.018Z,89.40
2019-03-26T00:51:46.946Z,89.50
2019-03-26T00:52:49.709Z,89.33
2019-03-26T00:53:52.482Z,89.33
2019-03-26T00:54:55.274Z,89.57
2019-03-26T00:56:01.028Z,89.57
2019-03-26T00:57:04.147Z,89.19
2019-03-26T00:58:07.309Z,89.74
2019-03-26T00:59:09.965Z,89.62
2019-03-26T01:00:12.765Z,89.62
2019-03-26T01:01:15.638Z,89.79
2019-03-26T01:02:18.368Z,90.02
2019-03-26T01:03:23.896Z,90.02
2019-03-26T01:04:33.097Z,90.26
2019-03-26T01:05:34.208Z,89.75
2019-03-26T01:06:36.997Z,89.75
2019-03-26T01:07:39.870Z,90.07
2019-03-26T01:08:45.634Z,90.24
2019-03-26T01:09:48.336Z,90.25
2019-03-26T01:10:51.445Z,89.72
2019-03-26T01:11:54.555Z,89.72
2019-03-26T01:12:57.278Z,90.14
2019-03-26T01:14:00.359Z,90.35
2019-03-26T01:15:06.088Z,90.00
2019-03-26T01:16:08.875Z,90.21
2019-03-26T01:17:11.719Z,90.55
2019-03-26T01:18:14.580Z,90.55
2019-03-26T01:19:17.319Z,90.54
2019-03-26T01:20:20.133Z,90.54
2019-03-26T01:21:22.944Z,90.58
2019-03-26T01:22:25.758Z,90.46
2019-03-26T01:23:28.922Z,90.77
2019-03-26T01:24:31.607Z,90.77
2019-03-26T01:25:34.553Z,91.08
2019-03-26T01:26:37.367Z,90.99
2019-03-26T01:27:40.620Z,91.22
2019-03-26T01:28:43.934Z,90.92
2019-03-26T01:29:46.942Z,91.27
2019-03-26T01:30:49.593Z,90.74
2019-03-26T01:31:52.812Z,90.77
2019-03-26T01:32:55.605Z,91.15
2019-03-26T01:33:58.490Z,91.15
2019-03-26T01:35:01.748Z,91.42
2019-03-26T01:36:04.930Z,91.31
2019-03-26T01:37:08.125Z,90.86
2019-03-26T01:38:10.929Z,90.83
2019-03-26T01:39:13.662Z,90.98
2019-03-26T01:40:16.449Z,90.90
2019-03-26T01:41:19.160Z,90.98
2019-03-26T01:42:22.367Z,91.14
2019-03-26T01:43:25.580Z,90.67
2019-03-26T01:44:28.374Z,90.39
2019-03-26T01:45:31.256Z,90.62
2019-03-26T01:46:34.102Z,90.28
2019-03-26T01:47:36.888Z,90.71
2019-03-26T01:48:41.336Z,90.97
2019-03-26T01:49:44.095Z,90.68
2019-03-26T01:50:47.382Z,91.35
2019-03-26T01:51:50.397Z,90.94
2019-03-26T01:52:53.244Z,90.82
2019-03-26T01:53:56.069Z,90.82
2019-03-26T01:54:59.286Z,91.40
2019-03-26T01:56:02.108Z,91.13
2019-03-26T01:57:05.460Z,91.12
2019-03-26T01:58:08.255Z,91.03
2019-03-26T01:59:13.873Z,90.93
2019-03-26T02:00:16.997Z,90.63
2019-03-26T02:01:20.221Z,91.11
2019-03-26T02:02:23.064Z,91.60
2019-03-26T02:03:25.839Z,91.45
2019-03-26T02:04:28.933Z,90.85
2019-03-26T02:05:31.754Z,90.95
2019-03-26T02:06:34.649Z,90.95
2019-03-26T02:07:39.046Z,91.09
2019-03-26T02:08:42.024Z,91.27
2019-03-26T02:09:44.904Z,91.72
2019-03-26T02:10:47.999Z,91.45
2019-03-26T02:11:50.675Z,91.42
2019-03-26T02:12:54.649Z,91.41
2019-03-26T02:13:57.513Z,91.01
2019-03-26T02:15:00.407Z,91.31
2019-03-26T02:16:03.164Z,91.29
2019-03-26T02:17:06.000Z,91.16
2019-03-26T02:18:08.685Z,91.13
2019-03-26T02:19:12.032Z,91.13
2019-03-26T02:20:14.850Z,90.96
2019-03-26T02:21:17.677Z,90.87
2019-03-26T02:22:20.321Z,91.30
2019-03-26T02:23:23.811Z,91.36
2019-03-26T02:24:27.128Z,90.97
2019-03-26T02:25:30.904Z,90.97
2019-03-26T02:26:34.076Z,91.15
2019-03-26T02:27:36.890Z,91.16
2019-03-26T02:28:39.699Z,91.32
2019-03-26T02:29:42.557Z,91.38
2019-03-26T02:30:45.771Z,90.96
2019-03-26T02:31:48.966Z,90.81
2019-03-26T02:32:52.788Z,91.52
2019-03-26T02:33:55.605Z,91.52
2019-03-26T02:34:58.465Z,90.88
2019-03-26T02:36:01.339Z,90.99
2019-03-26T02:37:04.198Z,90.95
2019-03-26T02:38:07.284Z,91.58
2019-03-26T02:39:10.088Z,91.21
2019-03-26T02:40:12.957Z,91.25
2019-03-26T02:41:15.756Z,91.10
2019-03-26T02:42:18.555Z,91.02
2019-03-26T02:43:21.842Z,90.89
2019-03-26T02:44:24.752Z,91.39
2019-03-26T02:45:27.755Z,91.73
2019-03-26T02:46:31.846Z,91.34
2019-03-26T02:47:38.239Z,91.34
2019-03-26T02:48:41.097Z,91.51
2019-03-26T02:49:43.966Z,91.42
2019-03-26T02:50:48.373Z,91.31
2019-03-26T02:51:51.664Z,91.53
2019-03-26T02:52:54.474Z,91.53
2019-03-26T02:53:57.293Z,91.10
2019-03-26T02:55:00.230Z,91.39
2019-03-26T02:56:04.348Z,91.77
2019-03-26T02:57:07.525Z,91.28
2019-03-26T02:58:10.757Z,91.42
2019-03-26T02:59:14.059Z,91.16
2019-03-26T03:00:16.867Z,91.37
2019-03-26T03:01:19.739Z,91.17
2019-03-26T03:02:22.576Z,91.56
2019-03-26T03:03:26.940Z,91.29
2019-03-26T03:04:29.770Z,91.36
2019-03-26T03:05:35.714Z,91.52
2019-03-26T03:06:38.519Z,91.59
2019-03-26T03:07:41.324Z,91.45
2019-03-26T03:08:44.128Z,91.77
2019-03-26T03:09:47.286Z,91.93
2019-03-26T03:10:50.150Z,91.79
2019-03-26T03:11:52.956Z,92.50
2019-03-26T03:12:55.839Z,92.58
2019-03-26T03:13:58.695Z,92.58
2019-03-26T03:15:01.551Z,92.12
2019-03-26T03:16:04.800Z,91.74
2019-03-26T03:17:08.049Z,92.25
2019-03-26T03:18:11.228Z,92.40
2019-03-26T03:19:15.901Z,92.02
2019-03-26T03:20:18.821Z,91.89
2019-03-26T03:21:21.698Z,91.82
2019-03-26T03:22:26.070Z,91.89
2019-03-26T03:23:29.048Z,91.90
2019-03-26T03:24:31.835Z,91.96
2019-03-26T03:25:35.723Z,91.93
2019-03-26T03:26:39.293Z,91.93
2019-03-26T03:27:42.123Z,91.89
2019-03-26T03:28:45.386Z,92.18
2019-03-26T03:29:48.208Z,92.39
2019-03-26T03:30:51.005Z,91.78
2019-03-26T03:31:53.880Z,91.82
2019-03-26T03:32:57.475Z,91.66
2019-03-26T03:34:00.354Z,92.18
2019-03-26T03:35:03.177Z,91.99
2019-03-26T03:36:06.131Z,91.89
2019-03-26T03:37:08.946Z,92.29
2019-03-26T03:38:11.753Z,92.33
2019-03-26T03:39:14.564Z,91.74
2019-03-26T03:40:17.370Z,91.74
2019-03-26T03:41:20.291Z,91.87
2019-03-26T03:42:23.082Z,91.51
2019-03-26T03:43:26.376Z,91.29
2019-03-26T03:44:29.029Z,91.29
2019-03-26T03:45:32.428Z,91.51
2019-03-26T03:46:35.247Z,91.37
2019-03-26T03:47:38.064Z,91.31
2019-03-26T03:48:40.870Z,91.48
2019-03-26T03:49:46.670Z,91.80
2019-03-26T03:50:49.720Z,91.70
2019-03-26T03:51:53.091Z,91.61
2019-03-26T03:52:56.260Z,91.56
2019-03-26T03:53:59.534Z,91.50
2019-03-26T03:55:02.329Z,91.58
2019-03-26T03:56:05.387Z,91.67
2019-03-26T03:57:08.269Z,91.67
2019-03-26T03:58:11.383Z,91.80
2019-03-26T03:59:14.183Z,91.43
2019-03-26T04:00:17.415Z,91.43
2019-03-26T04:01:20.305Z,91.39
2019-03-26T04:02:23.123Z,91.57
2019-03-26T04:03:26.346Z,92.14
2019-03-26T04:04:31.143Z,91.60
2019-03-26T04:05:33.943Z,91.99
2019-03-26T04:06:36.770Z,91.67
2019-03-26T04:07:39.633Z,91.67
2019-03-26T04:08:42.488Z,92.42
2019-03-26T04:09:45.325Z,92.24
2019-03-26T04:10:48.473Z,92.20
2019-03-26T04:11:51.290Z,92.59
2019-03-26T04:12:54.160Z,92.40
2019-03-26T04:13:56.977Z,92.43
2019-03-26T04:14:59.780Z,92.43
2019-03-26T04:16:03.812Z,92.52
2019-03-26T04:17:07.007Z,92.92
2019-03-26T04:18:09.798Z,92.84
2019-03-26T04:19:12.591Z,92.84
2019-03-26T04:20:15.393Z,93.16
2019-03-26T04:21:18.527Z,93.22
2019-03-26T04:22:21.388Z,93.15
2019-03-26T04:23:24.478Z,93.15
2019-03-26T04:24:27.443Z,93.03
2019-03-26T04:25:30.148Z,93.25
2019-03-26T04:26:33.537Z,93.03
2019-03-26T04:27:38.561Z,93.18
2019-03-26T04:28:41.802Z,93.03
2019-03-26T04:29:44.854Z,93.14
2019-03-26T04:30:47.718Z,92.95
2019-03-26T04:31:50.518Z,92.95
2019-03-26T04:32:53.338Z,92.70
2019-03-26T04:33:56.529Z,93.09
2019-03-26T04:34:59.418Z,92.78
2019-03-26T04:36:03.005Z,93.17
2019-03-26T04:37:05.675Z,92.76
2019-03-26T04:38:08.939Z,92.76
2019-03-26T04:39:11.746Z,92.94
2019-03-26T04:40:14.907Z,93.06
2019-03-26T04:41:17.775Z,93.11
2019-03-26T04:42:20.893Z,92.81
2019-03-26T04:43:24.089Z,92.81
2019-03-26T04:44:27.359Z,93.02
2019-03-26T04:45:30.627Z,93.02
2019-03-26T04:46:33.855Z,92.81
2019-03-26T04:47:39.611Z,92.67
2019-03-26T04:48:42.574Z,92.67
2019-03-26T04:49:45.373Z,92.91
2019-03-26T04:50:48.164Z,92.40
2019-03-26T04:51:51.044Z,92.36
2019-03-26T04:52:53.853Z,92.27
2019-03-26T04:53:56.655Z,91.66
2019-03-26T04:54:59.625Z,90.94
2019-03-26T04:56:02.843Z,90.68
2019-03-26T04:57:05.991Z,90.01
2019-03-26T04:58:08.669Z,89.62
2019-03-26T04:59:11.321Z,89.83
2019-03-26T05:00:14.126Z,89.83
2019-03-26T05:01:17.529Z,89.16
2019-03-26T05:02:20.698Z,89.51
2019-03-26T05:03:23.524Z,89.25
2019-03-26T05:04:26.181Z,89.25
2019-03-26T05:05:29.324Z,88.84
2019-03-26T05:06:37.806Z,88.37
2019-03-26T05:07:36.487Z,88.20
2019-03-26T05:08:39.182Z,88.76
2019-03-26T05:09:42.155Z,88.75
2019-03-26T05:10:45.221Z,88.25
2019-03-26T05:11:47.908Z,88.27
2019-03-26T05:12:50.929Z,87.73
2019-03-26T05:13:53.811Z,87.73
2019-03-26T05:14:56.476Z,86.52
2019-03-26T05:15:59.209Z,86.00
2019-03-26T05:17:01.927Z,85.73
2019-03-26T05:18:04.647Z,85.73
2019-03-26T05:19:07.607Z,85.49
2019-03-26T05:20:10.281Z,84.87
2019-03-26T05:21:13.377Z,84.51
2019-03-26T05:22:23.958Z,84.73
2019-03-26T05:23:20.453Z,84.27
2019-03-26T05:24:24.257Z,84.02
2019-03-26T05:25:27.586Z,84.04
2019-03-26T05:26:30.326Z,83.53
2019-03-26T05:27:44.863Z,83.58
2019-03-26T05:28:38.619Z,84.31
2019-03-26T05:29:41.344Z,83.92
2019-03-26T05:30:44.464Z,84.49
2019-03-26T05:31:47.418Z,84.38
2019-03-26T05:32:50.314Z,84.38
2019-03-26T05:33:53.009Z,84.64
2019-03-26T05:34:55.659Z,84.82
2019-03-26T05:35:58.300Z,85.44
2019-03-26T05:37:01.150Z,85.60
2019-03-26T05:38:04.436Z,86.13
2019-03-26T05:39:07.330Z,85.91
2019-03-26T05:40:10.056Z,85.91
2019-03-26T05:41:13.263Z,86.40
2019-03-26T05:42:16.064Z,86.40
2019-03-26T05:43:20.429Z,86.96
2019-03-26T05:44:26.384Z,86.97
2019-03-26T05:45:29.223Z,86.69
2019-03-26T05:46:32.198Z,86.13
2019-03-26T05:47:35.524Z,85.48
2019-03-26T05:48:39.984Z,85.48
2019-03-26T05:49:43.241Z,85.71
2019-03-26T05:50:46.336Z,85.60
2019-03-26T05:51:49.154Z,86.05
2019-03-26T05:52:53.063Z,85.72
2019-03-26T05:53:58.977Z,85.72
2019-03-26T05:55:02.115Z,85.80
2019-03-26T05:56:08.158Z,86.18
2019-03-26T05:57:11.236Z,85.73
2019-03-26T05:58:14.078Z,85.65
2019-03-26T05:59:17.077Z,85.92
2019-03-26T06:00:22.753Z,85.92
2019-03-26T06:01:25.673Z,85.75
2019-03-26T06:02:28.537Z,85.71
2019-03-26T06:03:36.114Z,85.71
2019-03-26T06:04:40.696Z,85.57
2019-03-26T06:05:43.511Z,85.44
2019-03-26T06:06:46.342Z,85.76
2019-03-26T06:07:49.431Z,85.76
2019-03-26T06:08:52.230Z,85.26
2019-03-26T06:09:56.436Z,85.44
2019-03-26T06:10:59.327Z,85.59
2019-03-26T06:12:03.252Z,85.49
2019-03-26T06:13:06.159Z,85.33
2019-03-26T06:14:08.997Z,85.33
2019-03-26T06:15:12.701Z,85.37
2019-03-26T06:16:16.891Z,85.37
2019-03-26T06:17:20.073Z,84.61
2019-03-26T06:18:24.344Z,85.39
2019-03-26T06:19:27.239Z,85.43
2019-03-26T06:20:30.523Z,84.63
2019-03-26T06:21:33.750Z,85.00
2019-03-26T06:22:37.925Z,85.11
2019-03-26T06:23:41.124Z,84.76
2019-03-26T06:24:44.589Z,84.54
2019-03-26T06:25:50.972Z,85.07
2019-03-26T06:26:53.853Z,84.95
2019-03-26T06:27:56.708Z,84.65
2019-03-26T06:29:01.208Z,84.58
2019-03-26T06:43:48.543Z,85.98
2019-03-26T06:44:51.431Z,86.24
2019-03-26T06:45:54.261Z,86.30
2019-03-26T06:46:57.458Z,86.27
2019-03-26T06:48:03.971Z,86.27
2019-03-26T06:49:07.000Z,85.97
2019-03-26T06:50:11.807Z,85.57
2019-03-26T06:51:15.062Z,85.58
2019-03-26T06:52:18.831Z,84.80
2019-03-26T06:53:21.699Z,85.16
2019-03-26T06:54:27.530Z,85.15
2019-03-26T06:55:30.887Z,84.96
2019-03-26T06:56:34.089Z,84.95
2019-03-26T06:57:38.583Z,84.95
2019-03-26T06:58:42.754Z,84.68
2019-03-26T06:59:46.855Z,84.26
2019-03-26T07:00:51.646Z,83.96
2019-03-26T07:01:54.831Z,83.28
2019-03-26T07:02:58.070Z,83.29
2019-03-26T07:04:00.939Z,83.45
2019-03-26T07:05:04.107Z,83.45
2019-03-26T07:06:08.689Z,83.53
2019-03-26T07:07:11.480Z,82.81
2019-03-26T07:08:15.602Z,82.81
2019-03-26T07:09:18.774Z,82.82
2019-03-26T07:10:21.611Z,82.73
2019-03-26T07:11:24.934Z,82.69
2019-03-26T07:12:28.753Z,82.13
2019-03-26T07:13:33.977Z,82.29
2019-03-26T07:14:36.634Z,81.73
2019-03-26T07:15:39.503Z,81.99
2019-03-26T07:16:43.685Z,81.55
2019-03-26T07:17:46.497Z,81.48
2019-03-26T07:18:49.405Z,81.48
2019-03-26T07:19:52.415Z,81.71
2019-03-26T07:20:55.569Z,81.70
2019-03-26T07:21:58.532Z,81.31
2019-03-26T07:23:01.448Z,81.31
2019-03-26T07:24:04.746Z,81.12
2019-03-26T07:25:07.636Z,80.75
2019-03-26T07:26:10.627Z,80.75
2019-03-26T07:27:17.410Z,81.07
2019-03-26T07:28:20.706Z,80.61
2019-03-26T07:29:23.597Z,80.97
2019-03-26T07:30:28.215Z,80.68
2019-03-26T07:31:31.836Z,80.49
2019-03-26T07:32:34.682Z,80.64
2019-03-26T07:33:38.269Z,80.80
2019-03-26T07:34:41.203Z,80.27
2019-03-26T07:35:44.455Z,80.27
2019-03-26T07:36:47.415Z,79.97
2019-03-26T07:37:50.236Z,80.77
2019-03-26T07:38:54.219Z,79.96
2019-03-26T07:40:00.467Z,79.64
2019-03-26T07:41:03.606Z,79.87
2019-03-26T07:42:08.815Z,79.87
2019-03-26T07:43:11.813Z,80.17
2019-03-26T07:44:17.156Z,80.26
2019-03-26T07:45:23.521Z,79.88
2019-03-26T07:46:26.801Z,80.31
2019-03-26T07:47:30.911Z,80.39
2019-03-26T07:48:33.826Z,80.39
2019-03-26T07:49:36.660Z,80.17
2019-03-26T07:50:43.142Z,80.17
2019-03-26T07:51:46.430Z,80.38
2019-03-26T07:52:49.364Z,80.09
2019-03-26T07:53:52.186Z,80.09
2019-03-26T07:54:57.270Z,79.89
2019-03-26T07:56:00.199Z,80.31
2019-03-26T07:57:07.285Z,79.89
2019-03-26T07:58:11.280Z,79.78
2019-03-26T07:59:14.178Z,80.03
2019-03-26T08:00:17.109Z,80.03
2019-03-26T08:01:20.429Z,79.91
2019-03-26T08:02:23.775Z,79.59
2019-03-26T08:03:26.637Z,79.29
2019-03-26T08:04:31.222Z,79.35
2019-03-26T08:05:34.127Z,79.35
2019-03-26T08:06:40.110Z,79.30
2019-03-26T08:07:43.899Z,79.68
2019-03-26T08:08:46.742Z,79.98
2019-03-26T08:09:51.473Z,79.71
2019-03-26T08:10:54.834Z,79.66
2019-03-26T08:11:58.112Z,79.72
2019-03-26T08:13:01.023Z,80.00
2019-03-26T08:14:06.093Z,79.66
2019-03-26T08:15:08.893Z,79.66
2019-03-26T08:16:12.139Z,79.67
2019-03-26T08:17:15.439Z,79.09
2019-03-26T08:18:18.313Z,79.30
2019-03-26T08:19:21.494Z,79.35
2019-03-26T08:20:24.460Z,79.35
2019-03-26T08:21:27.378Z,79.75
2019-03-26T08:22:30.204Z,79.73
2019-03-26T08:23:33.451Z,79.81
2019-03-26T08:24:36.395Z,79.97
2019-03-26T08:25:39.215Z,79.93
2019-03-26T08:26:43.210Z,79.65
2019-03-26T08:27:46.063Z,79.67
2019-03-26T08:28:48.919Z,79.67
2019-03-26T08:29:52.173Z,79.86
2019-03-26T08:30:54.995Z,80.07
2019-03-26T08:31:57.994Z,79.78
2019-03-26T08:33:00.774Z,80.15
2019-03-26T08:34:03.571Z,79.80
2019-03-26T08:35:06.537Z,79.90
2019-03-26T08:36:14.489Z,79.90
2019-03-26T08:37:17.306Z,80.24
2019-03-26T08:38:20.128Z,80.24
2019-03-26T08:39:25.491Z,80.58
2019-03-26T08:40:27.485Z,80.58
2019-03-26T08:41:30.758Z,80.00
2019-03-26T08:42:39.418Z,80.00
2019-03-26T08:43:44.418Z,80.52
2019-03-26T08:44:47.261Z,80.51
2019-03-26T08:45:53.175Z,79.92
2019-03-26T08:46:58.732Z,79.92
2019-03-26T08:48:01.567Z,79.40
2019-03-26T08:49:07.614Z,79.89
2019-03-26T08:50:10.458Z,80.41
2019-03-26T08:51:13.391Z,80.04
2019-03-26T08:52:16.675Z,79.89
2019-03-26T08:53:19.511Z,79.99
2019-03-26T08:54:29.115Z,80.05
2019-03-26T08:55:35.308Z,79.92
2019-03-26T08:56:42.906Z,79.92
2019-03-26T08:57:45.579Z,79.35
2019-03-26T08:58:48.522Z,79.31
2019-03-26T08:59:51.434Z,79.31
2019-03-26T09:00:59.033Z,79.33
2019-03-26T09:02:01.832Z,79.48
2019-03-26T09:03:04.782Z,79.27
2019-03-26T09:04:07.607Z,79.58
2019-03-26T09:05:10.548Z,79.11
2019-03-26T09:06:16.194Z,79.11
2019-03-26T09:07:19.443Z,78.49
2019-03-26T09:08:25.621Z,78.95
2019-03-26T09:09:27.044Z,78.44
2019-03-26T09:10:29.861Z,78.34
2019-03-26T09:11:33.587Z,78.83
2019-03-26T09:12:39.662Z,78.12
2019-03-26T09:13:45.720Z,78.60
2019-03-26T09:14:52.058Z,79.00
2019-03-26T09:15:55.446Z,79.00
2019-03-26T09:16:58.276Z,79.61
2019-03-26T09:18:03.406Z,79.93
2019-03-26T09:19:09.470Z,79.89
2019-03-26T09:20:12.923Z,79.89
2019-03-26T09:21:16.150Z,80.13
2019-03-26T09:22:23.494Z,79.59
2019-03-26T09:23:26.265Z,79.48
2019-03-26T09:24:29.559Z,79.30
2019-03-26T09:25:32.413Z,78.01
2019-03-26T09:26:38.071Z,77.68
2019-03-26T09:27:42.896Z,77.68
2019-03-26T09:28:49.111Z,77.13
2019-03-26T09:30:05.030Z,77.13
2019-03-26T09:31:07.627Z,77.09
2019-03-26T09:32:12.240Z,75.84
2019-03-26T09:33:19.241Z,75.82
2019-03-26T09:34:19.580Z,76.32
2019-03-26T09:35:24.102Z,75.65
2019-03-26T09:36:29.412Z,76.72
2019-03-26T09:37:32.215Z,76.32
2019-03-26T09:38:40.356Z,76.32
2019-03-26T09:39:45.674Z,76.84
2019-03-26T09:40:50.354Z,75.47
2019-03-26T09:41:53.274Z,74.81
2019-03-26T09:42:56.089Z,74.67
2019-03-26T09:44:12.028Z,74.77
2019-03-26T09:45:15.559Z,75.10
2019-03-26T09:46:27.447Z,75.10
2019-03-26T09:47:30.808Z,74.61
2019-03-26T09:48:34.183Z,73.68
2019-03-26T09:49:37.014Z,74.76
2019-03-26T09:50:44.278Z,74.33
2019-03-26T09:51:47.140Z,74.89
2019-03-26T09:52:50.534Z,74.00
2019-03-26T09:53:53.374Z,74.22
2019-03-26T09:54:56.205Z,74.22
2019-03-26T09:56:01.359Z,73.81
2019-03-26T09:57:04.543Z,73.79
2019-03-26T09:58:07.828Z,73.81
2019-03-26T09:59:10.976Z,73.40
2019-03-26T10:00:14.264Z,73.49
2019-03-26T10:01:19.775Z,73.39
2019-03-26T10:02:22.579Z,73.91
2019-03-26T10:03:33.103Z,73.56
2019-03-26T10:04:45.065Z,73.22
2019-03-26T10:05:45.423Z,73.11
2019-03-26T10:06:51.115Z,72.65
2019-03-26T10:07:54.020Z,72.72
2019-03-26T10:08:56.722Z,72.44
2019-03-26T10:09:59.850Z,71.53
2019-03-26T10:11:03.390Z,71.38
2019-03-26T10:12:06.198Z,68.91
2019-03-26T10:13:09.083Z,68.91
2019-03-26T10:14:11.942Z,67.37
2019-03-26T10:15:17.872Z,68.62
2019-03-26T10:16:22.400Z,69.51
2019-03-26T10:17:25.419Z,68.96
2019-03-26T10:18:28.796Z,69.61
2019-03-26T10:19:33.436Z,69.22
2019-03-26T10:20:36.139Z,68.74
2019-03-26T10:21:38.991Z,68.74
2019-03-26T10:22:49.565Z,69.98
2019-03-26T10:23:52.823Z,70.17
2019-03-26T10:24:57.748Z,70.13
2019-03-26T10:26:00.559Z,69.64
2019-03-26T10:27:06.580Z,70.21
2019-03-26T10:28:09.380Z,70.36
2019-03-26T10:29:24.154Z,71.14
2019-03-26T10:30:18.339Z,70.72
2019-03-26T10:31:25.423Z,71.72
2019-03-26T10:32:28.276Z,72.37
2019-03-26T10:33:34.113Z,72.07
2019-03-26T10:34:38.630Z,72.68
2019-03-26T10:35:41.816Z,73.36
2019-03-26T10:36:47.338Z,73.22
2019-03-26T10:37:50.467Z,73.59
2019-03-26T10:39:05.469Z,72.96
2019-03-26T10:40:03.061Z,73.21
2019-03-26T10:41:05.904Z,74.33
2019-03-26T10:42:09.025Z,73.71
2019-03-26T10:43:13.457Z,73.93
2019-03-26T10:44:16.310Z,73.54
2019-03-26T10:45:19.278Z,73.37
2019-03-26T10:46:22.408Z,73.17
2019-03-26T10:47:29.272Z,73.17
2019-03-26T10:48:35.002Z,72.50
2019-03-26T10:49:37.825Z,71.29
2019-03-26T10:50:42.890Z,71.29
2019-03-26T10:51:47.849Z,71.22
2019-03-26T10:52:53.948Z,72.14
2019-03-26T10:53:59.356Z,72.17
2019-03-26T10:55:03.835Z,72.00
2019-03-26T10:56:07.447Z,72.00
2019-03-26T10:57:10.268Z,71.09
2019-03-26T10:58:15.613Z,70.38
2019-03-26T10:59:24.246Z,70.40
2019-03-26T11:00:33.950Z,70.74
2019-03-26T11:01:36.932Z,70.74
2019-03-26T11:02:39.732Z,70.82
2019-03-26T11:03:42.643Z,71.44
2019-03-26T11:04:45.413Z,71.24
2019-03-26T11:05:50.795Z,70.09
2019-03-26T11:06:53.821Z,67.94
2019-03-26T11:08:27.207Z,67.01
2019-03-26T11:09:18.931Z,67.01
2019-03-26T11:10:10.677Z,66.72
2019-03-26T11:11:24.106Z,67.43
2019-03-26T11:12:27.048Z,66.74
2019-03-26T11:13:32.099Z,66.50
2019-03-26T11:14:34.812Z,65.72
2019-03-26T11:15:37.763Z,66.50
2019-03-26T11:16:43.276Z,66.34
2019-03-26T11:17:48.322Z,65.90
2019-03-26T11:18:51.445Z,65.94
2019-03-26T11:19:54.108Z,65.94
2019-03-26T11:21:04.821Z,65.42
2019-03-26T11:22:08.238Z,64.39
2019-03-26T11:23:10.929Z,64.06
2019-03-26T11:24:15.368Z,64.06
2019-03-26T11:25:36.152Z,64.39
2019-03-26T11:26:41.424Z,62.65
2019-03-26T11:27:51.849Z,62.96
2019-03-26T11:29:02.276Z,64.03
2019-03-26T11:43:01.385Z,59.76
2019-03-26T11:44:06.465Z,60.19
2019-03-26T11:45:10.083Z,60.77
2019-03-26T11:46:14.994Z,60.42
2019-03-26T11:47:17.623Z,60.68
2019-03-26T11:48:20.874Z,60.68
2019-03-26T11:49:23.950Z,61.05
2019-03-26T11:50:30.249Z,61.05
2019-03-26T11:51:33.855Z,60.76
2019-03-26T11:52:38.487Z,60.28
2019-03-26T11:53:41.707Z,60.28
2019-03-26T11:54:45.031Z,60.04
2019-03-26T11:55:50.770Z,59.85
2019-03-26T11:56:55.633Z,59.85
2019-03-26T11:58:06.147Z,60.89
2019-03-26T11:59:08.724Z,61.37
2019-03-26T12:00:16.572Z,60.57
2019-03-26T12:01:22.282Z,61.33
2019-03-26T12:02:28.244Z,61.15
2019-03-26T12:03:31.651Z,61.20
2019-03-26T12:04:34.663Z,61.37
2019-03-26T12:05:37.473Z,61.93
2019-03-26T12:06:44.310Z,61.93
2019-03-26T12:07:47.298Z,62.09
2019-03-26T12:08:50.182Z,61.05
2019-03-26T12:09:55.760Z,61.18
2019-03-26T12:10:59.676Z,62.31
2019-03-26T12:12:07.313Z,62.31
2019-03-26T12:13:10.135Z,62.50
2019-03-26T12:14:12.958Z,62.01
2019-03-26T12:15:17.817Z,62.01
2019-03-26T12:16:20.670Z,62.18
2019-03-26T12:17:24.698Z,62.47
2019-03-26T12:18:31.159Z,62.47
2019-03-26T12:19:34.042Z,63.16
2019-03-26T12:20:36.916Z,63.47
2019-03-26T12:21:39.838Z,63.26
2019-03-26T12:22:42.704Z,63.26
2019-03-26T12:23:45.973Z,64.01
2019-03-26T12:24:48.897Z,64.28
2019-03-26T12:25:52.230Z,64.69
2019-03-26T12:27:02.115Z,64.34
2019-03-26T12:28:06.680Z,64.59
2019-03-26T12:29:19.332Z,64.66
2019-03-26T12:30:22.199Z,64.66
2019-03-26T12:31:25.148Z,63.58
2019-03-26T12:32:28.627Z,63.15
2019-03-26T12:33:33.280Z,63.53
2019-03-26T12:34:38.569Z,64.07
2019-03-26T12:35:41.734Z,64.07
2019-03-26T12:36:44.578Z,64.11
2019-03-26T12:37:47.492Z,63.47
2019-03-26T12:38:50.407Z,63.27
2019-03-26T12:39:59.481Z,63.50
2019-03-26T12:40:57.904Z,63.09
2019-03-26T12:42:02.682Z,63.07
2019-03-26T12:43:15.239Z,63.37
2019-03-26T12:44:15.461Z,63.37
2019-03-26T12:45:21.074Z,62.53
2019-03-26T12:46:28.000Z,62.85
2019-03-26T12:47:30.630Z,62.85
2019-03-26T12:48:33.976Z,62.38
2019-03-26T12:49:46.596Z,62.75
2019-03-26T12:50:55.002Z,62.98
2019-03-26T12:51:58.662Z,63.19
2019-03-26T12:53:01.470Z,63.19
2019-03-26T12:54:04.650Z,62.55
2019-03-26T12:55:07.457Z,63.34
2019-03-26T12:56:12.040Z,62.12
2019-03-26T12:57:14.929Z,62.12
2019-03-26T12:58:31.163Z,61.97
2019-03-26T12:59:26.664Z,61.63
2019-03-26T13:00:30.203Z,61.15
2019-03-26T13:01:33.151Z,61.15
2019-03-26T13:02:36.223Z,60.69
2019-03-26T13:03:39.380Z,60.91
2019-03-26T13:04:42.579Z,60.91
2019-03-26T13:05:48.656Z,62.61
2019-03-26T13:06:53.342Z,64.04
2019-03-26T13:07:56.248Z,63.35
2019-03-26T13:08:59.165Z,63.51
2019-03-26T13:10:13.301Z,63.51
2019-03-26T13:11:09.772Z,63.42
2019-03-26T13:12:12.693Z,63.21
2019-03-26T13:13:16.683Z,63.21
2019-03-26T13:14:22.545Z,63.45
2019-03-26T13:15:25.440Z,64.14
2019-03-26T13:16:31.430Z,63.29
2019-03-26T13:17:34.622Z,64.33
2019-03-26T13:18:39.404Z,64.33
2019-03-26T13:19:45.304Z,66.17
2019-03-26T13:20:48.586Z,66.17
2019-03-26T13:21:53.935Z,66.01
2019-03-26T13:22:56.765Z,65.97
2019-03-26T13:24:03.149Z,65.92
2019-03-26T13:25:08.946Z,66.31
2019-03-26T13:26:12.016Z,67.21
2019-03-26T13:27:15.172Z,67.37
2019-03-26T13:28:18.075Z,66.43
2019-03-26T13:29:20.987Z,66.30
2019-03-26T13:30:24.706Z,66.30
2019-03-26T13:31:27.647Z,66.93
2019-03-26T13:32:39.187Z,67.00
2019-03-26T13:33:42.776Z,67.00
2019-03-26T13:34:45.756Z,66.40
2019-03-26T13:35:48.881Z,67.12
2019-03-26T13:36:58.025Z,66.12
2019-03-26T13:38:03.985Z,66.70
2019-03-26T13:39:06.851Z,65.72
2019-03-26T13:40:26.219Z,65.27
2019-03-26T13:41:18.428Z,64.14
2019-03-26T13:42:27.270Z,64.14
2019-03-26T13:43:33.237Z,64.28
2019-03-26T13:44:38.362Z,63.83
2019-03-26T13:45:41.192Z,63.50
2019-03-26T13:46:45.395Z,63.50
2019-03-26T13:47:51.489Z,64.10
2019-03-26T13:49:00.064Z,64.35
2019-03-26T13:50:06.433Z,64.35
2019-03-26T13:51:12.132Z,64.89
2019-03-26T13:52:34.803Z,65.81
2019-03-26T13:53:37.747Z,65.94
2019-03-26T13:54:40.711Z,66.03
2019-03-26T13:55:44.020Z,66.21
2019-03-26T13:56:48.107Z,65.56
2019-03-26T13:57:52.840Z,65.01
2019-03-26T13:58:56.313Z,64.98
2019-03-26T13:59:59.507Z,65.49
2019-03-26T14:01:06.581Z,66.01
2019-03-26T14:02:15.763Z,66.24
2019-03-26T14:03:24.415Z,66.42
2019-03-26T14:04:27.206Z,66.51
2019-03-26T14:05:30.170Z,66.80
2019-03-26T14:06:33.458Z,66.80
2019-03-26T14:07:36.333Z,66.60
2019-03-26T14:08:39.485Z,66.56
2019-03-26T14:09:42.387Z,66.97